This is the latest recevied weather packets stored in our database for station/object kj4yre. If no packets are shown the sender has not sent any weather packets the latest 10 day(s).
| Time | Temp. | Humidity | Pressure | Rain* | Wind** | Luminosity | Snow |
|---|---|---|---|---|---|---|---|
| 1787738237 | 15° C | 100% | 1018.6 hPa | 0 mm | - | - | - |
| 1787737936 | 15° C | 100% | 1018.6 hPa | 0 mm | - | - | - |
| 1787737036 | 15° C | 100% | 1018.6 hPa | 0 mm | - | - | - |
| 1787735237 | 15.56° C | 100% | 1018.6 hPa | 0 mm | - | - | - |
| 1787728635 | 16.11° C | 99% | 1018.4 hPa | 0 mm | - | - | - |
| 1787726235 | 16.11° C | 99% | 1018.5 hPa | 0 mm | - | - | - |
| 1787725635 | 16.11° C | 99% | 1018.5 hPa | 0 mm | - | - | - |
| 1787723534 | 16.11° C | 100% | 1018.7 hPa | 0 mm | - | - | - |
| 1787722035 | 16.67° C | 99% | 1018.7 hPa | 0 mm | - | - | - |
| 1787719936 | 16.67° C | 98% | 1018.6 hPa | 0 mm | - | - | - |
| 1787715438 | 17.78° C | 98% | 1018.7 hPa | 0 mm | - | - | - |
| 1787711537 | 18.33° C | 96% | 1018.7 hPa | 0 mm | - | - | - |
| 1787707335 | 19.44° C | 92% | 1018.4 hPa | 0 mm | - | - | - |
| 1787706436 | 20° C | 90% | 1018.3 hPa | 0 mm | - | - | - |
| 1787703136 | 21.11° C | 80% | 1017.7 hPa | 0 mm | - | - | - |
| 1787702237 | 22.22° C | 77% | 1017.5 hPa | 0 mm | - | - | - |
| 1787698338 | 25.56° C | 61% | 1017.1 hPa | 0 mm | - | - | - |
| 1787697138 | 28.33° C | 51% | 1016.9 hPa | 0 mm | - | - | - |
| 1787692935 | 29.44° C | 49% | 1016.5 hPa | 0 mm | - | - | - |
| 1787687236 | 29.44° C | 46% | 1016.4 hPa | 0 mm | - | - | - |
| 1787685436 | 27.78° C | 50% | 1016.7 hPa | 0 mm | - | - | - |
| 1787685137 | 28.33° C | 49% | 1016.8 hPa | 0 mm | - | - | - |
| 1787684235 | 29.44° C | 48% | 1017 hPa | 0 mm | - | - | - |
| 1787681837 | 28.33° C | 46% | 1017.5 hPa | 0 mm | - | - | - |
| 1787677938 | 28.33° C | 49% | 1017.6 hPa | 0 mm | - | - | - |
* Rain latest hour (hover to see other rain measurements)
** Current wind speed in m/s (hover to see current wind gust speed)